createdAt,value
2018-05-08T00:02:08.028Z,3.20
2018-05-08T00:04:36.171Z,3.63
2018-05-08T00:07:04.481Z,3.23
2018-05-08T00:09:32.631Z,3.87
2018-05-08T00:12:00.788Z,3.47
2018-05-08T00:14:29.409Z,3.80
2018-05-08T00:16:57.642Z,3.40
2018-05-08T00:19:25.855Z,3.50
2018-05-08T00:21:54.189Z,3.20
2018-05-08T00:24:22.549Z,3.60
2018-05-08T00:26:50.676Z,3.80
2018-05-08T00:29:18.968Z,3.50
2018-05-08T00:31:47.106Z,2.97
2018-05-08T00:34:15.292Z,3.30
2018-05-08T00:36:43.583Z,3.40
2018-05-08T00:39:11.944Z,3.43
2018-05-08T00:41:40.357Z,3.60
2018-05-08T00:44:08.685Z,3.50
2018-05-08T00:46:36.983Z,3.47
2018-05-08T00:49:05.129Z,3.53
2018-05-08T00:51:33.559Z,3.40
2018-05-08T00:54:01.886Z,3.30
2018-05-08T00:56:30.196Z,4.00
2018-05-08T00:58:58.304Z,3.70
2018-05-08T01:01:26.445Z,3.93
2018-05-08T01:03:54.814Z,3.50
2018-05-08T01:06:23.113Z,3.20
2018-05-08T01:08:51.447Z,3.40
2018-05-08T01:11:19.606Z,3.93
2018-05-08T01:13:47.763Z,3.60
2018-05-08T01:16:16.085Z,3.60
2018-05-08T01:18:44.203Z,3.57
2018-05-08T01:21:12.331Z,3.97
2018-05-08T01:23:40.457Z,3.73
2018-05-08T01:26:08.631Z,3.53
2018-05-08T01:28:37.000Z,3.43
2018-05-08T01:31:05.178Z,4.17
2018-05-08T01:33:33.400Z,4.20
2018-05-08T01:36:01.568Z,3.53
2018-05-08T01:38:29.719Z,3.77
2018-05-08T01:40:57.814Z,3.60
2018-05-08T01:43:25.954Z,3.63
2018-05-08T01:45:54.384Z,3.47
2018-05-08T01:48:22.499Z,3.67
2018-05-08T01:50:50.597Z,4.47
2018-05-08T01:53:18.691Z,3.83
2018-05-08T01:55:46.816Z,3.50
2018-05-08T01:58:15.146Z,3.90
2018-05-08T02:00:43.265Z,3.90
2018-05-08T02:03:11.420Z,4.20
2018-05-08T02:05:39.657Z,4.10
2018-05-08T02:08:08.050Z,4.40
2018-05-08T02:10:36.426Z,4.20
2018-05-08T02:13:04.514Z,3.30
2018-05-08T02:15:32.745Z,3.70
2018-05-08T02:18:00.880Z,3.57
2018-05-08T02:20:29.336Z,4.50
2018-05-08T02:22:57.462Z,4.17
2018-05-08T02:25:25.967Z,4.50
2018-05-08T02:27:54.137Z,4.43
2018-05-08T02:30:22.474Z,4.27
2018-05-08T02:32:50.572Z,3.70
2018-05-08T02:35:19.003Z,4.80
2018-05-08T02:37:47.127Z,4.00
2018-05-08T02:40:15.325Z,4.03
2018-05-08T02:42:43.805Z,4.23
2018-05-08T02:45:11.923Z,4.83
2018-05-08T02:47:40.036Z,4.23
2018-05-08T02:50:08.154Z,3.97
2018-05-08T02:52:36.311Z,4.37
2018-05-08T02:55:04.387Z,4.17
2018-05-08T02:57:32.460Z,3.73
2018-05-08T03:00:00.536Z,4.20
2018-05-08T03:02:28.835Z,4.10
2018-05-08T03:04:56.938Z,4.33
2018-05-08T03:07:25.024Z,4.53
2018-05-08T03:09:53.431Z,4.60
2018-05-08T03:12:21.491Z,4.40
2018-05-08T03:14:49.857Z,4.40
2018-05-08T03:17:18.002Z,4.70
2018-05-08T03:19:46.233Z,4.97
2018-05-08T03:22:14.371Z,4.73
2018-05-08T03:24:42.455Z,4.17
2018-05-08T03:27:10.527Z,4.57
2018-05-08T03:29:38.704Z,4.40
2018-05-08T03:32:06.899Z,3.87
2018-05-08T03:34:34.995Z,4.70
2018-05-08T03:37:03.127Z,4.47
2018-05-08T03:39:31.521Z,4.50
2018-05-08T03:41:59.669Z,4.90
2018-05-08T03:44:27.931Z,4.20
2018-05-08T03:46:56.350Z,4.70
2018-05-08T03:49:24.868Z,4.40
2018-05-08T03:51:53.499Z,4.20
2018-05-08T03:54:22.081Z,5.00
2018-05-08T03:56:50.757Z,4.67
2018-05-08T03:59:19.537Z,4.93
2018-05-08T04:01:59.632Z,5.10
2018-05-08T04:04:39.698Z,4.63
2018-05-08T04:07:22.217Z,5.13
2018-05-08T04:09:51.014Z,4.93
2018-05-08T04:12:19.184Z,5.83
2018-05-08T04:14:47.658Z,5.20
2018-05-08T04:17:16.429Z,5.67
2018-05-08T04:19:45.003Z,6.67
2018-05-08T04:22:13.654Z,5.37
2018-05-08T04:24:42.164Z,5.23
2018-05-08T04:27:10.774Z,4.37
2018-05-08T04:29:39.349Z,5.87
2018-05-08T04:32:07.787Z,4.67
2018-05-08T04:34:36.470Z,5.87
2018-05-08T04:37:04.748Z,5.70
2018-05-08T04:39:33.130Z,5.63
2018-05-08T04:42:01.494Z,5.13
2018-05-08T04:44:31.844Z,5.00
2018-05-08T04:47:00.942Z,5.43
2018-05-08T04:49:29.326Z,5.57
2018-05-08T04:51:58.486Z,5.80
2018-05-08T04:54:26.828Z,5.37
2018-05-08T04:56:59.367Z,6.10
2018-05-08T04:59:28.568Z,5.80
2018-05-08T05:01:57.078Z,4.70
2018-05-08T05:04:25.234Z,4.90
2018-05-08T05:06:54.335Z,5.50
2018-05-08T05:09:23.210Z,4.97
2018-05-08T05:11:51.766Z,5.23
2018-05-08T05:14:20.201Z,5.27
2018-05-08T05:16:48.611Z,6.07
2018-05-08T05:19:17.492Z,5.70
2018-05-08T05:21:46.111Z,5.50
2018-05-08T05:24:14.324Z,5.17
2018-05-08T05:26:42.705Z,6.53
2018-05-08T05:29:11.319Z,5.53
2018-05-08T05:31:39.708Z,5.47
2018-05-08T05:34:08.070Z,6.10
2018-05-08T05:36:36.702Z,5.23
2018-05-08T05:39:05.062Z,6.00
2018-05-08T05:41:33.436Z,5.40
2018-05-08T05:44:01.709Z,5.50
2018-05-08T05:46:29.984Z,6.07
2018-05-08T05:48:58.664Z,5.93
2018-05-08T05:51:26.857Z,5.60
2018-05-08T05:53:55.084Z,5.33
2018-05-08T05:56:23.447Z,5.53
2018-05-08T05:58:51.667Z,5.47
2018-05-08T06:01:20.016Z,5.23
2018-05-08T06:03:48.628Z,5.50
2018-05-08T06:06:17.193Z,5.40
2018-05-08T06:08:45.975Z,5.73
2018-05-08T06:11:14.257Z,4.93
2018-05-08T06:13:42.709Z,5.20
2018-05-08T06:16:11.107Z,5.20
2018-05-08T06:18:39.590Z,5.30
2018-05-08T06:21:08.141Z,4.53
2018-05-08T06:23:36.737Z,4.77
2018-05-08T06:26:05.012Z,5.73
2018-05-08T06:28:33.629Z,4.50
2018-05-08T06:31:01.694Z,5.10
2018-05-08T06:33:31.576Z,5.00
2018-05-08T06:36:00.219Z,5.00
2018-05-08T06:38:28.714Z,4.73
2018-05-08T06:40:57.056Z,4.90
2018-05-08T06:43:25.273Z,4.83
2018-05-08T06:45:53.496Z,5.17
2018-05-08T06:48:22.008Z,4.60
2018-05-08T06:50:50.508Z,5.03
2018-05-08T06:53:18.598Z,4.53
2018-05-08T06:55:46.728Z,4.87
2018-05-08T06:58:14.945Z,4.90
2018-05-08T07:00:43.251Z,5.27
2018-05-08T07:03:12.104Z,4.73
2018-05-08T07:05:40.353Z,4.93
2018-05-08T07:08:08.508Z,4.50
2018-05-08T07:10:36.831Z,4.73
2018-05-08T07:13:05.487Z,4.93
2018-05-08T07:15:33.680Z,3.87
2018-05-08T07:18:01.795Z,4.33
2018-05-08T07:20:30.087Z,4.73
2018-05-08T07:22:58.570Z,4.80
2018-05-08T07:25:27.022Z,4.73
2018-05-08T07:27:55.354Z,4.07
2018-05-08T07:30:23.517Z,3.93
2018-05-08T07:32:51.649Z,4.87
2018-05-08T07:35:19.964Z,4.70
2018-05-08T07:37:48.253Z,4.67
2018-05-08T07:40:16.401Z,5.00
2018-05-08T07:42:44.540Z,3.97
2018-05-08T07:45:12.754Z,3.87
2018-05-08T07:47:40.926Z,4.83
2018-05-08T07:50:09.205Z,5.20
2018-05-08T07:52:37.564Z,4.50
2018-05-08T07:55:05.803Z,4.50
2018-05-08T07:57:34.216Z,3.87
2018-05-08T08:00:02.397Z,5.00
2018-05-08T08:02:31.072Z,4.23
2018-05-08T08:04:59.286Z,3.77
2018-05-08T08:07:28.416Z,4.27
2018-05-08T08:09:56.457Z,3.93
2018-05-08T08:12:24.675Z,3.87
2018-05-08T08:14:52.931Z,4.43
2018-05-08T08:17:21.060Z,4.40
2018-05-08T08:19:49.176Z,4.53
2018-05-08T08:22:17.339Z,3.53
2018-05-08T08:24:45.582Z,4.17
2018-05-08T08:27:14.004Z,3.70
2018-05-08T08:29:42.292Z,3.90
2018-05-08T08:32:10.525Z,3.80
2018-05-08T08:34:38.642Z,3.10
2018-05-08T08:37:06.811Z,3.33
2018-05-08T08:39:35.042Z,3.33
2018-05-08T08:42:03.442Z,4.63
2018-05-08T08:44:31.607Z,3.53
2018-05-08T08:46:59.699Z,3.53
2018-05-08T08:49:28.011Z,3.43
2018-05-08T08:51:56.095Z,3.07
2018-05-08T08:54:24.338Z,2.57
2018-05-08T08:56:52.592Z,3.03
2018-05-08T08:59:20.814Z,2.60
2018-05-08T09:01:49.015Z,2.50
2018-05-08T09:04:17.427Z,3.00
2018-05-08T09:06:45.588Z,2.40
2018-05-08T09:09:13.697Z,2.83
2018-05-08T09:11:41.861Z,2.40
2018-05-08T09:14:10.060Z,2.20
2018-05-08T09:16:38.478Z,2.97
2018-05-08T09:19:06.587Z,2.50
2018-05-08T09:21:34.706Z,1.70
2018-05-08T09:24:02.954Z,2.60
2018-05-08T09:26:31.283Z,2.27
2018-05-08T09:28:59.376Z,1.77
2018-05-08T09:31:27.655Z,2.00
2018-05-08T09:33:55.953Z,2.07
2018-05-08T09:36:24.101Z,2.13
2018-05-08T09:38:52.222Z,2.20
2018-05-08T09:41:20.405Z,2.40
2018-05-08T09:43:48.676Z,2.07
2018-05-08T09:46:16.890Z,1.93
2018-05-08T09:48:45.306Z,2.70
2018-05-08T09:51:13.620Z,2.50
2018-05-08T09:53:41.825Z,2.23
2018-05-08T09:56:10.008Z,2.17
2018-05-08T09:58:38.310Z,1.90
2018-05-08T10:01:06.641Z,1.70
2018-05-08T10:03:35.078Z,1.83
2018-05-08T10:06:03.308Z,2.40
2018-05-08T10:08:31.529Z,2.10
2018-05-08T10:10:59.827Z,2.63
2018-05-08T10:13:28.078Z,2.10
2018-05-08T10:15:56.189Z,2.87
2018-05-08T10:18:24.518Z,2.83
2018-05-08T10:20:52.921Z,2.03
2018-05-08T10:23:21.031Z,2.33
2018-05-08T10:25:49.529Z,2.50
2018-05-08T10:28:17.661Z,2.30
2018-05-08T10:30:45.966Z,2.57
2018-05-08T10:33:14.314Z,2.50
2018-05-08T10:35:42.576Z,2.40
2018-05-08T10:38:10.780Z,2.13
2018-05-08T10:40:38.888Z,2.20
2018-05-08T10:43:07.009Z,2.40
2018-05-08T10:45:35.174Z,2.30
2018-05-08T10:48:03.493Z,2.57
2018-05-08T10:50:31.692Z,3.83
2018-05-08T10:52:59.867Z,3.50
2018-05-08T10:55:28.049Z,3.13
2018-05-08T10:57:56.157Z,3.80
2018-05-08T11:00:24.292Z,3.57
2018-05-08T11:02:52.550Z,4.83
2018-05-08T11:05:20.726Z,4.47
2018-05-08T11:07:49.049Z,2.00
2018-05-08T11:10:17.153Z,3.57
2018-05-08T11:12:45.497Z,3.20
2018-05-08T11:15:13.585Z,2.90
2018-05-08T11:17:41.674Z,2.57
2018-05-08T11:20:09.931Z,2.50
2018-05-08T11:22:38.062Z,2.17
2018-05-08T11:25:06.179Z,1.57
2018-05-08T11:27:34.500Z,2.07
2018-05-08T11:30:02.688Z,2.23
2018-05-08T11:32:30.852Z,2.33
2018-05-08T11:34:58.997Z,2.10
2018-05-08T11:37:27.113Z,2.50
2018-05-08T11:39:55.214Z,2.90
2018-05-08T11:42:23.411Z,2.03
2018-05-08T11:44:51.556Z,2.17
2018-05-08T11:47:19.734Z,2.67
2018-05-08T11:49:47.980Z,2.40
2018-05-08T11:52:16.063Z,2.33
2018-05-08T11:54:44.243Z,1.90
2018-05-08T11:57:12.394Z,2.97
2018-05-08T11:59:40.630Z,2.60
2018-05-08T12:02:08.748Z,2.20
2018-05-08T12:04:36.886Z,2.00
2018-05-08T12:07:05.051Z,2.23
2018-05-08T12:09:33.254Z,2.40
2018-05-08T12:12:01.422Z,2.87
2018-05-08T12:14:29.595Z,2.07
2018-05-08T12:16:57.779Z,2.27
2018-05-08T12:19:26.019Z,2.23
2018-05-08T12:21:54.339Z,2.23
2018-05-08T12:24:22.593Z,2.33
2018-05-08T12:26:51.814Z,2.30
2018-05-08T12:29:20.008Z,2.07
2018-05-08T12:31:48.277Z,2.13
2018-05-08T12:34:16.425Z,2.00
2018-05-08T12:36:44.683Z,2.23
2018-05-08T12:39:12.863Z,1.93
2018-05-08T12:41:41.208Z,2.17
2018-05-08T12:44:09.493Z,2.17
2018-05-08T12:46:37.913Z,1.80
2018-05-08T12:49:06.106Z,2.00
2018-05-08T12:51:34.361Z,1.90
2018-05-08T12:54:02.581Z,1.80
2018-05-08T12:56:30.968Z,1.93
2018-05-08T12:58:59.200Z,1.93
2018-05-08T13:01:27.543Z,1.93
2018-05-08T13:03:55.767Z,2.00
2018-05-08T13:06:23.933Z,1.93
2018-05-08T13:08:52.196Z,1.97
2018-05-08T13:11:20.328Z,2.27
2018-05-08T13:13:48.614Z,2.47
2018-05-08T13:16:16.822Z,1.97
2018-05-08T13:18:45.166Z,1.90
2018-05-08T13:21:13.564Z,1.97
2018-05-08T13:23:42.751Z,2.37
2018-05-08T13:26:11.068Z,2.27
2018-05-08T13:28:39.557Z,2.30
2018-05-08T13:31:08.027Z,2.70
2018-05-08T13:33:36.333Z,2.30
2018-05-08T13:36:04.526Z,2.07
2018-05-08T13:38:32.731Z,1.70
2018-05-08T13:41:00.934Z,2.10
2018-05-08T13:43:29.128Z,1.90
2018-05-08T13:45:57.574Z,3.33
2018-05-08T13:48:25.859Z,1.70
2018-05-08T13:50:54.128Z,2.80
2018-05-08T13:53:22.700Z,1.70
2018-05-08T13:55:51.181Z,1.93
2018-05-08T13:58:19.520Z,2.37
2018-05-08T14:00:47.787Z,2.03
2018-05-08T14:03:16.273Z,1.80
2018-05-08T14:05:44.521Z,1.73
2018-05-08T14:08:12.739Z,1.47
2018-05-08T14:10:41.325Z,2.17
2018-05-08T14:13:09.630Z,1.53
2018-05-08T14:15:37.819Z,1.80
2018-05-08T14:18:06.469Z,2.10
2018-05-08T14:20:34.863Z,2.13
2018-05-08T14:23:03.132Z,2.03
2018-05-08T14:25:31.450Z,2.20
2018-05-08T14:27:59.674Z,2.10
2018-05-08T14:30:27.766Z,2.03
2018-05-08T14:32:56.147Z,2.03
2018-05-08T14:35:24.394Z,1.93
2018-05-08T14:37:52.789Z,2.70
2018-05-08T14:40:21.151Z,2.03
2018-05-08T14:42:49.426Z,2.33
2018-05-08T14:45:17.660Z,2.10
2018-05-08T14:47:46.300Z,2.40
2018-05-08T14:50:14.543Z,2.03
2018-05-08T14:52:42.765Z,2.17
2018-05-08T14:55:11.013Z,2.60
2018-05-08T14:57:39.211Z,2.13
2018-05-08T15:00:07.540Z,2.07
2018-05-08T15:02:35.744Z,2.00
2018-05-08T15:05:03.894Z,2.60
2018-05-08T15:07:32.019Z,1.97
2018-05-08T15:10:00.218Z,2.30
2018-05-08T15:12:28.464Z,2.17
2018-05-08T15:14:56.617Z,2.67
2018-05-08T15:17:24.826Z,2.10
2018-05-08T15:19:53.002Z,2.27
2018-05-08T15:22:21.202Z,2.47
2018-05-08T15:24:49.371Z,2.80
2018-05-08T15:27:17.903Z,2.17
2018-05-08T15:29:46.139Z,2.23
2018-05-08T15:32:14.271Z,2.20
2018-05-08T15:34:42.422Z,2.37
2018-05-08T15:37:10.683Z,2.27
2018-05-08T15:39:38.765Z,2.13
2018-05-08T15:42:06.928Z,1.97
2018-05-08T15:44:35.257Z,2.13
2018-05-08T15:47:03.547Z,2.10
2018-05-08T15:49:31.668Z,2.30
2018-05-08T15:51:59.798Z,2.90
2018-05-08T15:54:27.981Z,2.50
2018-05-08T15:56:56.166Z,2.63
2018-05-08T15:59:24.470Z,2.67
2018-05-08T16:01:52.846Z,2.27
2018-05-08T16:04:21.192Z,1.97
2018-05-08T16:06:49.647Z,2.40
2018-05-08T16:09:18.134Z,2.53
2018-05-08T16:11:46.288Z,2.30
2018-05-08T16:14:14.473Z,2.50
2018-05-08T16:16:42.723Z,2.80
2018-05-08T16:19:11.035Z,3.03
2018-05-08T16:21:39.250Z,2.40
2018-05-08T16:24:07.684Z,2.83
2018-05-08T16:26:36.038Z,2.57
2018-05-08T16:29:04.423Z,2.30
2018-05-08T16:31:32.780Z,2.43
2018-05-08T16:34:01.158Z,2.63
2018-05-08T16:36:29.458Z,2.90
2018-05-08T16:38:57.831Z,2.10
2018-05-08T16:41:26.197Z,2.63
2018-05-08T16:43:54.467Z,2.40
2018-05-08T16:46:22.857Z,3.10
2018-05-08T16:48:51.483Z,2.50
2018-05-08T16:51:19.841Z,2.77
2018-05-08T16:53:48.114Z,2.30
2018-05-08T16:56:16.449Z,2.37
2018-05-08T16:58:44.733Z,3.07
2018-05-08T17:01:13.170Z,2.43
2018-05-08T17:03:41.486Z,2.50
2018-05-08T17:06:09.848Z,3.00
2018-05-08T17:08:38.285Z,3.10
2018-05-08T17:11:06.628Z,2.67
2018-05-08T17:13:34.861Z,3.17
2018-05-08T17:16:03.185Z,2.63
2018-05-08T17:18:31.554Z,2.87
2018-05-08T17:21:00.269Z,3.23
2018-05-08T17:23:28.908Z,3.23
2018-05-08T17:25:57.240Z,2.40
2018-05-08T17:28:26.249Z,2.80
2018-05-08T17:30:54.654Z,2.97
2018-05-08T17:33:23.108Z,2.63
2018-05-08T17:35:51.525Z,2.97
2018-05-08T17:38:20.077Z,2.90
2018-05-08T17:40:48.344Z,3.27
2018-05-08T17:43:16.564Z,2.93
2018-05-08T17:45:44.877Z,2.73
2018-05-08T17:48:13.416Z,3.57
2018-05-08T17:50:41.741Z,3.20
2018-05-08T17:53:10.504Z,2.93
2018-05-08T17:55:39.035Z,2.93
2018-05-08T17:58:07.551Z,2.40
2018-05-08T18:00:35.938Z,2.80
2018-05-08T18:03:04.178Z,2.57
2018-05-08T18:05:32.692Z,3.57
2018-05-08T18:08:01.472Z,3.27
2018-05-08T18:10:30.433Z,2.93
2018-05-08T18:12:59.127Z,3.20
2018-05-08T18:15:27.574Z,3.00
2018-05-08T18:17:55.781Z,2.90
2018-05-08T18:20:24.348Z,2.87
2018-05-08T18:22:52.808Z,2.73
2018-05-08T18:25:21.213Z,2.90
2018-05-08T18:27:49.500Z,2.80
2018-05-08T18:30:18.093Z,3.00
2018-05-08T18:32:46.497Z,2.80
2018-05-08T18:35:14.727Z,3.30
2018-05-08T18:37:42.952Z,3.10
2018-05-08T18:40:11.598Z,3.47
2018-05-08T18:42:39.803Z,3.00
2018-05-08T18:45:08.003Z,3.30
2018-05-08T18:47:36.303Z,2.73
2018-05-08T18:50:08.578Z,3.23
2018-05-08T18:52:41.110Z,2.77
2018-05-08T18:55:12.548Z,2.83
2018-05-08T18:57:43.953Z,2.53
2018-05-08T19:00:18.025Z,3.20
2018-05-08T19:02:46.178Z,3.07
2018-05-08T19:05:14.276Z,2.77
2018-05-08T19:07:42.462Z,2.97
2018-05-08T19:10:10.589Z,2.83
2018-05-08T19:12:38.688Z,3.13
2018-05-08T19:15:12.332Z,2.80
2018-05-08T19:17:40.419Z,3.23
2018-05-08T19:20:08.483Z,2.70
2018-05-08T19:22:36.716Z,3.33
2018-05-08T19:25:04.809Z,3.23
2018-05-08T19:27:32.941Z,3.83
2018-05-08T19:30:06.763Z,3.37
2018-05-08T19:32:34.877Z,3.73
2018-05-08T19:35:08.721Z,3.77
2018-05-08T19:37:42.755Z,3.33
2018-05-08T19:40:10.986Z,3.40
2018-05-08T19:42:39.598Z,3.17
2018-05-08T19:45:07.712Z,3.97
2018-05-08T19:47:35.892Z,3.90
2018-05-08T19:50:04.318Z,3.50
2018-05-08T19:52:32.447Z,3.50
2018-05-08T19:55:00.795Z,3.83
2018-05-08T19:57:28.966Z,3.73
2018-05-08T19:59:57.101Z,3.17
2018-05-08T20:02:25.260Z,3.00
2018-05-08T20:04:54.057Z,3.77
2018-05-08T20:07:23.927Z,3.63
2018-05-08T20:10:18.214Z,4.97
2018-05-08T20:12:47.560Z,3.70
2018-05-08T20:15:15.807Z,4.17
2018-05-08T20:17:45.196Z,3.47
2018-05-08T20:20:13.571Z,4.00
2018-05-08T20:22:42.572Z,4.00
2018-05-08T20:25:24.715Z,4.50
2018-05-08T20:27:53.180Z,3.50
2018-05-08T20:30:21.313Z,3.93
2018-05-08T20:32:56.263Z,3.63
2018-05-08T20:35:24.401Z,4.20
2018-05-08T20:37:52.612Z,4.57
2018-05-08T20:40:21.116Z,4.00
2018-05-08T20:42:49.407Z,3.77
2018-05-08T20:45:18.229Z,4.17
2018-05-08T20:47:47.130Z,3.87
2018-05-08T20:50:15.862Z,4.17
2018-05-08T20:52:44.043Z,3.77
2018-05-08T20:55:12.441Z,3.90
2018-05-08T20:57:40.622Z,4.67
2018-05-08T21:00:09.565Z,3.90
2018-05-08T21:02:37.784Z,4.33
2018-05-08T21:05:06.140Z,3.73
2018-05-08T21:07:34.541Z,4.20
2018-05-08T21:10:02.993Z,4.23
2018-05-08T21:12:31.370Z,4.20
2018-05-08T21:14:59.824Z,3.60
2018-05-08T21:17:28.150Z,4.33
2018-05-08T21:19:56.408Z,4.37
2018-05-08T21:22:24.852Z,4.60
2018-05-08T21:24:53.285Z,4.57
2018-05-08T21:27:21.762Z,4.10
2018-05-08T21:29:55.983Z,3.97
2018-05-08T21:32:24.238Z,4.60
2018-05-08T21:34:52.443Z,4.03
2018-05-08T21:37:20.629Z,4.00
2018-05-08T21:39:49.034Z,4.40
2018-05-08T21:42:17.345Z,4.60
2018-05-08T21:44:45.947Z,4.00
2018-05-08T21:47:14.098Z,4.70
2018-05-08T21:49:42.478Z,4.20
2018-05-08T21:52:11.074Z,4.67
2018-05-08T21:54:39.546Z,4.50
2018-05-08T21:57:07.702Z,4.77
2018-05-08T21:59:35.947Z,5.07
2018-05-08T22:02:04.306Z,4.83
2018-05-08T22:10:14.648Z,4.80
2018-05-08T22:12:42.736Z,4.23
2018-05-08T22:15:11.111Z,4.83
2018-05-08T22:17:39.237Z,4.30
2018-05-08T22:20:07.359Z,5.10
2018-05-08T22:22:35.467Z,4.80
2018-05-08T22:25:03.808Z,4.53
2018-05-08T22:27:32.104Z,4.67
2018-05-08T22:30:00.251Z,4.40
2018-05-08T22:32:28.353Z,4.70
2018-05-08T22:34:56.471Z,4.80
2018-05-08T22:37:25.121Z,4.87
2018-05-08T22:39:53.240Z,4.77
2018-05-08T22:42:21.350Z,4.63
2018-05-08T22:44:49.489Z,5.03
2018-05-08T22:47:17.969Z,4.50
2018-05-08T22:49:46.099Z,4.87
2018-05-08T22:52:14.266Z,4.63
2018-05-08T22:54:42.371Z,4.47
2018-05-08T22:57:10.748Z,4.50
2018-05-08T22:59:38.913Z,5.30
2018-05-08T23:02:07.177Z,5.07
2018-05-08T23:04:35.404Z,4.70
2018-05-08T23:07:03.539Z,4.53
2018-05-08T23:09:31.641Z,4.43
2018-05-08T23:11:59.752Z,4.47
2018-05-08T23:14:27.861Z,5.00
2018-05-08T23:16:56.025Z,4.47
2018-05-08T23:19:24.098Z,4.87
2018-05-08T23:21:52.273Z,5.07
2018-05-08T23:24:20.667Z,4.77
2018-05-08T23:26:48.947Z,5.20
2018-05-08T23:29:17.352Z,5.13
2018-05-08T23:31:46.315Z,4.93
2018-05-08T23:34:14.569Z,4.67
2018-05-08T23:36:42.978Z,4.73
2018-05-08T23:39:11.101Z,5.30
2018-05-08T23:41:39.543Z,5.20
2018-05-08T23:44:07.891Z,4.70
2018-05-08T23:46:36.074Z,5.27
2018-05-08T23:49:04.195Z,5.10
2018-05-08T23:51:32.288Z,5.07
2018-05-08T23:54:00.421Z,6.03
2018-05-08T23:56:28.803Z,5.10
2018-05-08T23:58:56.907Z,5.17
